sensor_id;sensor_type;location;lat;lon;timestamp;P1;durP1;ratioP1;P2;durP2;ratioP2
18206;SDS011;9229;52.354;20.886;2023-07-31T00:01:57;2.97;;;2.88;;
18206;SDS011;9229;52.354;20.886;2023-07-31T00:06:59;3.33;;;3.17;;
18206;SDS011;9229;52.354;20.886;2023-07-31T00:12:06;3.55;;;3.35;;
18206;SDS011;9229;52.354;20.886;2023-07-31T00:17:09;3.03;;;2.83;;
18206;SDS011;9229;52.354;20.886;2023-07-31T00:22:10;3.28;;;3.10;;
18206;SDS011;9229;52.354;20.886;2023-07-31T00:27:15;6.20;;;3.03;;
18206;SDS011;9229;52.354;20.886;2023-07-31T00:32:17;3.17;;;2.92;;
18206;SDS011;9229;52.354;20.886;2023-07-31T00:37:20;3.00;;;2.80;;
18206;SDS011;9229;52.354;20.886;2023-07-31T00:42:25;3.38;;;3.17;;
18206;SDS011;9229;52.354;20.886;2023-07-31T00:47:40;3.22;;;3.10;;
18206;SDS011;9229;52.354;20.886;2023-07-31T00:52:42;8.10;;;2.70;;
18206;SDS011;9229;52.354;20.886;2023-07-31T00:57:46;3.13;;;3.03;;
18206;SDS011;9229;52.354;20.886;2023-07-31T01:02:52;8.27;;;3.20;;
18206;SDS011;9229;52.354;20.886;2023-07-31T01:08:03;3.00;;;2.90;;
18206;SDS011;9229;52.354;20.886;2023-07-31T01:13:15;2.90;;;2.80;;
18206;SDS011;9229;52.354;20.886;2023-07-31T01:18:22;3.08;;;2.92;;
18206;SDS011;9229;52.354;20.886;2023-07-31T01:23:35;3.00;;;2.80;;
18206;SDS011;9229;52.354;20.886;2023-07-31T01:28:54;3.10;;;2.72;;
18206;SDS011;9229;52.354;20.886;2023-07-31T01:34:12;3.53;;;3.33;;
18206;SDS011;9229;52.354;20.886;2023-07-31T01:39:17;3.55;;;3.25;;
18206;SDS011;9229;52.354;20.886;2023-07-31T01:44:25;3.38;;;3.17;;
18206;SDS011;9229;52.354;20.886;2023-07-31T01:49:27;3.15;;;3.00;;
18206;SDS011;9229;52.354;20.886;2023-07-31T01:54:38;3.33;;;3.22;;
18206;SDS011;9229;52.354;20.886;2023-07-31T02:00:00;3.70;;;3.50;;
18206;SDS011;9229;52.354;20.886;2023-07-31T02:05:12;4.95;;;3.30;;
18206;SDS011;9229;52.354;20.886;2023-07-31T02:10:29;3.95;;;3.65;;
18206;SDS011;9229;52.354;20.886;2023-07-31T02:15:40;3.45;;;3.25;;
18206;SDS011;9229;52.354;20.886;2023-07-31T02:20:53;3.90;;;3.58;;
18206;SDS011;9229;52.354;20.886;2023-07-31T02:25:55;3.72;;;3.40;;
18206;SDS011;9229;52.354;20.886;2023-07-31T02:30:59;3.90;;;3.65;;
18206;SDS011;9229;52.354;20.886;2023-07-31T02:36:04;3.50;;;3.38;;
18206;SDS011;9229;52.354;20.886;2023-07-31T02:41:06;3.55;;;3.25;;
18206;SDS011;9229;52.354;20.886;2023-07-31T02:46:13;3.88;;;3.58;;
18206;SDS011;9229;52.354;20.886;2023-07-31T02:51:22;3.63;;;3.40;;
18206;SDS011;9229;52.354;20.886;2023-07-31T02:56:25;3.75;;;3.55;;
18206;SDS011;9229;52.354;20.886;2023-07-31T03:01:29;3.97;;;3.58;;
18206;SDS011;9229;52.354;20.886;2023-07-31T03:06:33;4.00;;;3.70;;
18206;SDS011;9229;52.354;20.886;2023-07-31T03:11:35;6.05;;;3.92;;
18206;SDS011;9229;52.354;20.886;2023-07-31T03:16:40;3.53;;;3.33;;
18206;SDS011;9229;52.354;20.886;2023-07-31T03:21:43;4.15;;;3.88;;
18206;SDS011;9229;52.354;20.886;2023-07-31T03:26:47;4.15;;;3.85;;
18206;SDS011;9229;52.354;20.886;2023-07-31T03:31:54;4.00;;;3.70;;
18206;SDS011;9229;52.354;20.886;2023-07-31T03:36:59;4.53;;;4.13;;
18206;SDS011;9229;52.354;20.886;2023-07-31T03:42:02;6.13;;;3.92;;
18206;SDS011;9229;52.354;20.886;2023-07-31T03:47:08;4.10;;;3.70;;
18206;SDS011;9229;52.354;20.886;2023-07-31T03:52:12;3.88;;;3.58;;
18206;SDS011;9229;52.354;20.886;2023-07-31T03:57:15;4.07;;;3.78;;
18206;SDS011;9229;52.354;20.886;2023-07-31T04:02:19;4.32;;;4.00;;
18206;SDS011;9229;52.354;20.886;2023-07-31T04:07:24;3.25;;;3.15;;
18206;SDS011;9229;52.354;20.886;2023-07-31T04:12:29;4.13;;;3.83;;
18206;SDS011;9229;52.354;20.886;2023-07-31T04:17:33;3.85;;;3.58;;
18206;SDS011;9229;52.354;20.886;2023-07-31T04:22:38;4.18;;;3.88;;
18206;SDS011;9229;52.354;20.886;2023-07-31T04:27:43;6.65;;;4.30;;
18206;SDS011;9229;52.354;20.886;2023-07-31T04:32:59;4.07;;;3.78;;
18206;SDS011;9229;52.354;20.886;2023-07-31T04:38:09;4.00;;;3.70;;
18206;SDS011;9229;52.354;20.886;2023-07-31T04:43:12;4.97;;;3.60;;
18206;SDS011;9229;52.354;20.886;2023-07-31T04:48:16;3.85;;;3.58;;
18206;SDS011;9229;52.354;20.886;2023-07-31T04:53:23;3.83;;;3.55;;
18206;SDS011;9229;52.354;20.886;2023-07-31T04:58:31;5.95;;;3.72;;
18206;SDS011;9229;52.354;20.886;2023-07-31T05:03:35;3.97;;;3.67;;
18206;SDS011;9229;52.354;20.886;2023-07-31T05:08:37;3.80;;;3.50;;
18206;SDS011;9229;52.354;20.886;2023-07-31T05:13:39;2.88;;;2.78;;
18206;SDS011;9229;52.354;20.886;2023-07-31T05:18:43;7.35;;;3.30;;
18206;SDS011;9229;52.354;20.886;2023-07-31T05:23:45;3.38;;;3.13;;
18206;SDS011;9229;52.354;20.886;2023-07-31T05:28:48;4.45;;;3.17;;
18206;SDS011;9229;52.354;20.886;2023-07-31T05:33:54;4.13;;;3.25;;
18206;SDS011;9229;52.354;20.886;2023-07-31T05:38:57;3.75;;;3.10;;
18206;SDS011;9229;52.354;20.886;2023-07-31T05:43:59;3.80;;;2.92;;
18206;SDS011;9229;52.354;20.886;2023-07-31T05:49:05;3.40;;;3.20;;
18206;SDS011;9229;52.354;20.886;2023-07-31T05:54:09;3.38;;;3.17;;
18206;SDS011;9229;52.354;20.886;2023-07-31T05:59:15;3.38;;;2.90;;
18206;SDS011;9229;52.354;20.886;2023-07-31T06:04:30;4.75;;;3.13;;
18206;SDS011;9229;52.354;20.886;2023-07-31T06:09:41;3.33;;;3.03;;
18206;SDS011;9229;52.354;20.886;2023-07-31T06:14:43;3.28;;;3.08;;
18206;SDS011;9229;52.354;20.886;2023-07-31T06:19:50;3.40;;;3.05;;
18206;SDS011;9229;52.354;20.886;2023-07-31T06:24:53;3.22;;;2.92;;
18206;SDS011;9229;52.354;20.886;2023-07-31T06:29:55;4.18;;;3.00;;
18206;SDS011;9229;52.354;20.886;2023-07-31T06:34:59;6.80;;;3.00;;
18206;SDS011;9229;52.354;20.886;2023-07-31T06:40:01;3.45;;;2.78;;
18206;SDS011;9229;52.354;20.886;2023-07-31T06:45:06;3.00;;;2.80;;
18206;SDS011;9229;52.354;20.886;2023-07-31T06:50:10;2.85;;;2.75;;
18206;SDS011;9229;52.354;20.886;2023-07-31T06:55:17;3.40;;;3.10;;
18206;SDS011;9229;52.354;20.886;2023-07-31T07:00:20;3.00;;;2.80;;
18206;SDS011;9229;52.354;20.886;2023-07-31T07:05:26;7.05;;;2.65;;
18206;SDS011;9229;52.354;20.886;2023-07-31T07:10:52;2.85;;;2.65;;
18206;SDS011;9229;52.354;20.886;2023-07-31T07:16:00;3.67;;;2.90;;
18206;SDS011;9229;52.354;20.886;2023-07-31T07:21:03;2.70;;;2.50;;
18206;SDS011;9229;52.354;20.886;2023-07-31T07:26:06;3.13;;;2.85;;
18206;SDS011;9229;52.354;20.886;2023-07-31T07:31:19;2.33;;;2.20;;
18206;SDS011;9229;52.354;20.886;2023-07-31T07:36:24;3.13;;;2.92;;
18206;SDS011;9229;52.354;20.886;2023-07-31T07:41:29;3.30;;;2.45;;
18206;SDS011;9229;52.354;20.886;2023-07-31T07:46:34;6.85;;;2.88;;
18206;SDS011;9229;52.354;20.886;2023-07-31T07:51:42;2.50;;;2.40;;
18206;SDS011;9229;52.354;20.886;2023-07-31T07:59:07;2.42;;;2.20;;
18206;SDS011;9229;52.354;20.886;2023-07-31T08:04:08;2.25;;;2.15;;
18206;SDS011;9229;52.354;20.886;2023-07-31T08:09:11;2.80;;;2.10;;
18206;SDS011;9229;52.354;20.886;2023-07-31T08:14:14;5.38;;;3.05;;
18206;SDS011;9229;52.354;20.886;2023-07-31T08:19:19;3.05;;;2.20;;
18206;SDS011;9229;52.354;20.886;2023-07-31T08:24:35;1.85;;;1.70;;
18206;SDS011;9229;52.354;20.886;2023-07-31T08:29:39;2.38;;;2.28;;
18206;SDS011;9229;52.354;20.886;2023-07-31T08:34:41;7.43;;;2.17;;
18206;SDS011;9229;52.354;20.886;2023-07-31T08:39:43;2.50;;;2.40;;
18206;SDS011;9229;52.354;20.886;2023-07-31T08:44:47;2.60;;;2.40;;
18206;SDS011;9229;52.354;20.886;2023-07-31T08:49:51;2.63;;;2.45;;
18206;SDS011;9229;52.354;20.886;2023-07-31T08:54:54;2.38;;;2.28;;
18206;SDS011;9229;52.354;20.886;2023-07-31T08:59:57;3.97;;;2.50;;
18206;SDS011;9229;52.354;20.886;2023-07-31T09:05:00;2.42;;;2.30;;
18206;SDS011;9229;52.354;20.886;2023-07-31T09:10:05;3.58;;;2.05;;
18206;SDS011;9229;52.354;20.886;2023-07-31T09:15:09;3.40;;;2.13;;
18206;SDS011;9229;52.354;20.886;2023-07-31T09:20:13;1.85;;;1.75;;
18206;SDS011;9229;52.354;20.886;2023-07-31T09:25:17;1.88;;;1.77;;
18206;SDS011;9229;52.354;20.886;2023-07-31T09:30:21;2.10;;;1.45;;
18206;SDS011;9229;52.354;20.886;2023-07-31T09:35:27;1.63;;;1.52;;
18206;SDS011;9229;52.354;20.886;2023-07-31T09:40:31;4.15;;;1.50;;
18206;SDS011;9229;52.354;20.886;2023-07-31T09:45:36;1.50;;;1.50;;
18206;SDS011;9229;52.354;20.886;2023-07-31T09:50:39;1.92;;;1.40;;
18206;SDS011;9229;52.354;20.886;2023-07-31T09:55:43;2.20;;;1.80;;
18206;SDS011;9229;52.354;20.886;2023-07-31T10:00:46;2.85;;;1.50;;
18206;SDS011;9229;52.354;20.886;2023-07-31T10:05:57;4.45;;;1.40;;
18206;SDS011;9229;52.354;20.886;2023-07-31T10:11:04;1.83;;;1.52;;
18206;SDS011;9229;52.354;20.886;2023-07-31T10:16:12;1.65;;;1.55;;
18206;SDS011;9229;52.354;20.886;2023-07-31T10:21:18;1.60;;;1.50;;
18206;SDS011;9229;52.354;20.886;2023-07-31T10:26:21;1.98;;;1.70;;
18206;SDS011;9229;52.354;20.886;2023-07-31T10:31:29;2.30;;;1.70;;
18206;SDS011;9229;52.354;20.886;2023-07-31T10:36:33;2.40;;;1.58;;
18206;SDS011;9229;52.354;20.886;2023-07-31T10:41:38;1.75;;;1.67;;
18206;SDS011;9229;52.354;20.886;2023-07-31T10:47:06;1.77;;;1.65;;
18206;SDS011;9229;52.354;20.886;2023-07-31T10:52:13;2.67;;;1.73;;
18206;SDS011;9229;52.354;20.886;2023-07-31T10:57:24;1.85;;;1.63;;
18206;SDS011;9229;52.354;20.886;2023-07-31T11:02:34;1.98;;;1.70;;
18206;SDS011;9229;52.354;20.886;2023-07-31T11:07:46;2.55;;;1.70;;
18206;SDS011;9229;52.354;20.886;2023-07-31T11:12:48;3.38;;;1.70;;
18206;SDS011;9229;52.354;20.886;2023-07-31T11:17:55;2.10;;;1.40;;
18206;SDS011;9229;52.354;20.886;2023-07-31T11:22:59;4.05;;;1.33;;
18206;SDS011;9229;52.354;20.886;2023-07-31T11:28:04;1.52;;;1.42;;
18206;SDS011;9229;52.354;20.886;2023-07-31T11:33:14;2.33;;;1.27;;
18206;SDS011;9229;52.354;20.886;2023-07-31T11:38:23;1.77;;;1.50;;
18206;SDS011;9229;52.354;20.886;2023-07-31T11:43:26;1.50;;;1.33;;
18206;SDS011;9229;52.354;20.886;2023-07-31T11:48:30;2.50;;;1.70;;
18206;SDS011;9229;52.354;20.886;2023-07-31T11:53:35;1.70;;;1.60;;
18206;SDS011;9229;52.354;20.886;2023-07-31T11:58:42;1.58;;;1.48;;
18206;SDS011;9229;52.354;20.886;2023-07-31T12:03:48;5.72;;;1.60;;
18206;SDS011;9229;52.354;20.886;2023-07-31T12:08:51;2.33;;;1.17;;
18206;SDS011;9229;52.354;20.886;2023-07-31T12:13:53;3.47;;;1.50;;
18206;SDS011;9229;52.354;20.886;2023-07-31T12:18:57;3.67;;;1.52;;
18206;SDS011;9229;52.354;20.886;2023-07-31T12:23:59;3.78;;;1.60;;
18206;SDS011;9229;52.354;20.886;2023-07-31T12:29:01;1.63;;;1.60;;
18206;SDS011;9229;52.354;20.886;2023-07-31T12:34:14;4.47;;;1.75;;
18206;SDS011;9229;52.354;20.886;2023-07-31T12:39:17;1.85;;;1.45;;
18206;SDS011;9229;52.354;20.886;2023-07-31T12:44:19;2.35;;;1.73;;
18206;SDS011;9229;52.354;20.886;2023-07-31T12:49:23;1.60;;;1.50;;
18206;SDS011;9229;52.354;20.886;2023-07-31T12:54:25;1.48;;;1.38;;
18206;SDS011;9229;52.354;20.886;2023-07-31T12:59:27;3.60;;;1.65;;
18206;SDS011;9229;52.354;20.886;2023-07-31T13:04:31;1.77;;;1.67;;
18206;SDS011;9229;52.354;20.886;2023-07-31T13:09:33;2.40;;;1.90;;
18206;SDS011;9229;52.354;20.886;2023-07-31T13:14:38;2.38;;;1.38;;
18206;SDS011;9229;52.354;20.886;2023-07-31T13:19:41;1.63;;;1.58;;
18206;SDS011;9229;52.354;20.886;2023-07-31T13:24:44;2.70;;;1.42;;
18206;SDS011;9229;52.354;20.886;2023-07-31T13:29:46;1.60;;;1.60;;
18206;SDS011;9229;52.354;20.886;2023-07-31T13:34:50;1.60;;;1.50;;
18206;SDS011;9229;52.354;20.886;2023-07-31T13:39:52;3.50;;;1.60;;
18206;SDS011;9229;52.354;20.886;2023-07-31T13:44:54;5.50;;;2.58;;
18206;SDS011;9229;52.354;20.886;2023-07-31T13:49:58;3.20;;;2.10;;
18206;SDS011;9229;52.354;20.886;2023-07-31T13:55:00;2.03;;;1.70;;
18206;SDS011;9229;52.354;20.886;2023-07-31T14:00:03;5.50;;;2.05;;
18206;SDS011;9229;52.354;20.886;2023-07-31T14:05:09;2.72;;;2.15;;
18206;SDS011;9229;52.354;20.886;2023-07-31T14:10:11;5.32;;;1.70;;
18206;SDS011;9229;52.354;20.886;2023-07-31T14:15:13;1.63;;;1.52;;
18206;SDS011;9229;52.354;20.886;2023-07-31T14:20:17;9.50;;;1.80;;
18206;SDS011;9229;52.354;20.886;2023-07-31T14:25:19;5.38;;;1.73;;
18206;SDS011;9229;52.354;20.886;2023-07-31T14:30:21;2.65;;;1.90;;
18206;SDS011;9229;52.354;20.886;2023-07-31T14:35:25;1.85;;;1.75;;
18206;SDS011;9229;52.354;20.886;2023-07-31T14:40:27;2.67;;;1.52;;
18206;SDS011;9229;52.354;20.886;2023-07-31T14:45:29;1.85;;;1.75;;
18206;SDS011;9229;52.354;20.886;2023-07-31T14:50:33;1.63;;;1.52;;
18206;SDS011;9229;52.354;20.886;2023-07-31T14:55:35;1.80;;;1.70;;
18206;SDS011;9229;52.354;20.886;2023-07-31T15:00:37;2.83;;;1.92;;
18206;SDS011;9229;52.354;20.886;2023-07-31T15:05:41;13.15;;;1.88;;
18206;SDS011;9229;52.354;20.886;2023-07-31T15:10:43;7.00;;;2.30;;
18206;SDS011;9229;52.354;20.886;2023-07-31T15:15:46;2.97;;;2.08;;
18206;SDS011;9229;52.354;20.886;2023-07-31T15:20:49;2.08;;;1.88;;
18206;SDS011;9229;52.354;20.886;2023-07-31T15:25:52;3.83;;;1.98;;
18206;SDS011;9229;52.354;20.886;2023-07-31T15:30:54;2.10;;;1.95;;
18206;SDS011;9229;52.354;20.886;2023-07-31T15:35:58;1.77;;;1.65;;
18206;SDS011;9229;52.354;20.886;2023-07-31T15:41:01;2.03;;;1.92;;
18206;SDS011;9229;52.354;20.886;2023-07-31T15:46:03;2.17;;;2.08;;
18206;SDS011;9229;52.354;20.886;2023-07-31T15:51:07;3.20;;;2.08;;
18206;SDS011;9229;52.354;20.886;2023-07-31T15:56:09;8.38;;;2.28;;
18206;SDS011;9229;52.354;20.886;2023-07-31T16:01:12;3.35;;;1.85;;
18206;SDS011;9229;52.354;20.886;2023-07-31T16:06:15;1.60;;;1.50;;
18206;SDS011;9229;52.354;20.886;2023-07-31T16:11:18;2.00;;;1.80;;
18206;SDS011;9229;52.354;20.886;2023-07-31T16:16:22;2.78;;;1.83;;
18206;SDS011;9229;52.354;20.886;2023-07-31T16:21:28;2.22;;;1.77;;
18206;SDS011;9229;52.354;20.886;2023-07-31T16:26:30;2.20;;;1.95;;
18206;SDS011;9229;52.354;20.886;2023-07-31T16:31:33;4.25;;;2.22;;
18206;SDS011;9229;52.354;20.886;2023-07-31T16:36:37;5.03;;;2.28;;
18206;SDS011;9229;52.354;20.886;2023-07-31T16:41:39;5.72;;;2.08;;
18206;SDS011;9229;52.354;20.886;2023-07-31T16:46:41;4.05;;;2.17;;
18206;SDS011;9229;52.354;20.886;2023-07-31T16:51:44;2.78;;;2.25;;
18206;SDS011;9229;52.354;20.886;2023-07-31T16:56:49;12.52;;;3.25;;
18206;SDS011;9229;52.354;20.886;2023-07-31T17:01:51;2.83;;;2.33;;
18206;SDS011;9229;52.354;20.886;2023-07-31T17:06:54;3.58;;;2.03;;
18206;SDS011;9229;52.354;20.886;2023-07-31T17:11:56;2.35;;;2.17;;
18206;SDS011;9229;52.354;20.886;2023-07-31T17:16:59;12.45;;;2.33;;
18206;SDS011;9229;52.354;20.886;2023-07-31T17:22:03;3.38;;;2.20;;
18206;SDS011;9229;52.354;20.886;2023-07-31T17:27:05;5.25;;;2.53;;
18206;SDS011;9229;52.354;20.886;2023-07-31T17:32:07;2.22;;;2.08;;
18206;SDS011;9229;52.354;20.886;2023-07-31T17:37:11;3.30;;;2.33;;
18206;SDS011;9229;52.354;20.886;2023-07-31T17:42:13;3.05;;;2.47;;
18206;SDS011;9229;52.354;20.886;2023-07-31T17:47:16;6.32;;;2.55;;
18206;SDS011;9229;52.354;20.886;2023-07-31T17:52:20;3.17;;;2.13;;
18206;SDS011;9229;52.354;20.886;2023-07-31T17:57:22;5.63;;;2.58;;
18206;SDS011;9229;52.354;20.886;2023-07-31T18:02:25;3.20;;;2.13;;
18206;SDS011;9229;52.354;20.886;2023-07-31T18:07:29;2.65;;;2.50;;
18206;SDS011;9229;52.354;20.886;2023-07-31T18:12:30;2.40;;;2.28;;
18206;SDS011;9229;52.354;20.886;2023-07-31T18:17:33;2.60;;;2.40;;
18206;SDS011;9229;52.354;20.886;2023-07-31T18:22:36;2.50;;;2.35;;
18206;SDS011;9229;52.354;20.886;2023-07-31T18:27:38;4.22;;;2.35;;
18206;SDS011;9229;52.354;20.886;2023-07-31T18:32:40;3.13;;;2.83;;
18206;SDS011;9229;52.354;20.886;2023-07-31T18:37:44;5.05;;;2.85;;
18206;SDS011;9229;52.354;20.886;2023-07-31T18:42:49;7.30;;;2.80;;
18206;SDS011;9229;52.354;20.886;2023-07-31T18:47:51;3.00;;;2.33;;
18206;SDS011;9229;52.354;20.886;2023-07-31T18:52:54;7.85;;;2.70;;
18206;SDS011;9229;52.354;20.886;2023-07-31T18:57:56;2.55;;;2.40;;
18206;SDS011;9229;52.354;20.886;2023-07-31T19:02:58;2.42;;;2.20;;
18206;SDS011;9229;52.354;20.886;2023-07-31T19:08:02;6.47;;;3.00;;
18206;SDS011;9229;52.354;20.886;2023-07-31T19:13:05;4.32;;;2.65;;
18206;SDS011;9229;52.354;20.886;2023-07-31T19:18:07;2.63;;;2.42;;
18206;SDS011;9229;52.354;20.886;2023-07-31T19:23:11;6.40;;;2.58;;
18206;SDS011;9229;52.354;20.886;2023-07-31T19:28:13;4.47;;;2.80;;
18206;SDS011;9229;52.354;20.886;2023-07-31T19:33:17;2.72;;;2.38;;
18206;SDS011;9229;52.354;20.886;2023-07-31T19:38:20;9.23;;;3.10;;
18206;SDS011;9229;52.354;20.886;2023-07-31T19:43:22;13.48;;;3.15;;
18206;SDS011;9229;52.354;20.886;2023-07-31T19:48:25;4.60;;;3.50;;
18206;SDS011;9229;52.354;20.886;2023-07-31T19:53:28;10.38;;;3.20;;
18206;SDS011;9229;52.354;20.886;2023-07-31T19:58:30;5.90;;;3.65;;
18206;SDS011;9229;52.354;20.886;2023-07-31T20:03:33;9.25;;;3.28;;
18206;SDS011;9229;52.354;20.886;2023-07-31T20:08:39;4.78;;;3.78;;
18206;SDS011;9229;52.354;20.886;2023-07-31T20:13:41;3.97;;;3.13;;
18206;SDS011;9229;52.354;20.886;2023-07-31T20:18:44;7.55;;;4.00;;
18206;SDS011;9229;52.354;20.886;2023-07-31T20:23:52;6.10;;;3.83;;
18206;SDS011;9229;52.354;20.886;2023-07-31T20:28:54;9.70;;;4.07;;
18206;SDS011;9229;52.354;20.886;2023-07-31T20:33:56;4.15;;;3.75;;
18206;SDS011;9229;52.354;20.886;2023-07-31T20:39:00;7.00;;;3.67;;
18206;SDS011;9229;52.354;20.886;2023-07-31T20:44:02;5.40;;;3.60;;
18206;SDS011;9229;52.354;20.886;2023-07-31T20:49:04;5.03;;;4.07;;
18206;SDS011;9229;52.354;20.886;2023-07-31T20:54:08;5.45;;;4.30;;
18206;SDS011;9229;52.354;20.886;2023-07-31T20:59:10;4.20;;;3.90;;
18206;SDS011;9229;52.354;20.886;2023-07-31T21:04:14;6.72;;;4.70;;
18206;SDS011;9229;52.354;20.886;2023-07-31T21:09:18;4.72;;;4.30;;
18206;SDS011;9229;52.354;20.886;2023-07-31T21:14:20;6.20;;;4.07;;
18206;SDS011;9229;52.354;20.886;2023-07-31T21:19:22;6.07;;;4.32;;
18206;SDS011;9229;52.354;20.886;2023-07-31T21:24:25;6.13;;;4.20;;
18206;SDS011;9229;52.354;20.886;2023-07-31T21:29:27;5.10;;;4.32;;
18206;SDS011;9229;52.354;20.886;2023-07-31T21:34:30;7.72;;;4.00;;
18206;SDS011;9229;52.354;20.886;2023-07-31T21:39:33;5.07;;;3.50;;
18206;SDS011;9229;52.354;20.886;2023-07-31T21:44:35;4.88;;;3.88;;
18206;SDS011;9229;52.354;20.886;2023-07-31T21:49:37;8.55;;;3.70;;
18206;SDS011;9229;52.354;20.886;2023-07-31T21:54:41;4.63;;;3.38;;
18206;SDS011;9229;52.354;20.886;2023-07-31T21:59:43;6.97;;;3.30;;
18206;SDS011;9229;52.354;20.886;2023-07-31T22:04:45;10.00;;;3.28;;
18206;SDS011;9229;52.354;20.886;2023-07-31T22:09:49;11.05;;;3.08;;
18206;SDS011;9229;52.354;20.886;2023-07-31T22:14:51;5.80;;;3.55;;
18206;SDS011;9229;52.354;20.886;2023-07-31T22:19:53;3.65;;;3.42;;
18206;SDS011;9229;52.354;20.886;2023-07-31T22:24:57;3.72;;;3.50;;
18206;SDS011;9229;52.354;20.886;2023-07-31T22:29:59;7.47;;;3.40;;
18206;SDS011;9229;52.354;20.886;2023-07-31T22:35:01;5.47;;;3.40;;
18206;SDS011;9229;52.354;20.886;2023-07-31T22:40:05;4.80;;;3.13;;
18206;SDS011;9229;52.354;20.886;2023-07-31T22:45:08;7.75;;;3.20;;
18206;SDS011;9229;52.354;20.886;2023-07-31T22:50:11;3.63;;;3.42;;
18206;SDS011;9229;52.354;20.886;2023-07-31T22:55:15;3.70;;;3.35;;
18206;SDS011;9229;52.354;20.886;2023-07-31T23:00:17;4.03;;;3.60;;
18206;SDS011;9229;52.354;20.886;2023-07-31T23:05:21;7.88;;;3.72;;
18206;SDS011;9229;52.354;20.886;2023-07-31T23:10:25;6.72;;;3.83;;
18206;SDS011;9229;52.354;20.886;2023-07-31T23:15:28;3.97;;;3.58;;
18206;SDS011;9229;52.354;20.886;2023-07-31T23:20:30;3.38;;;3.13;;
18206;SDS011;9229;52.354;20.886;2023-07-31T23:25:35;4.25;;;3.70;;
18206;SDS011;9229;52.354;20.886;2023-07-31T23:30:37;3.60;;;3.25;;
18206;SDS011;9229;52.354;20.886;2023-07-31T23:35:39;5.70;;;3.70;;
18206;SDS011;9229;52.354;20.886;2023-07-31T23:40:43;4.90;;;3.17;;
18206;SDS011;9229;52.354;20.886;2023-07-31T23:45:45;3.55;;;2.80;;
18206;SDS011;9229;52.354;20.886;2023-07-31T23:50:47;3.75;;;3.45;;
18206;SDS011;9229;52.354;20.886;2023-07-31T23:55:51;3.65;;;3.35;;
